createdAt,value
2017-12-21T00:01:16.810Z,6.20
2017-12-21T00:03:44.241Z,6.10
2017-12-21T00:06:12.433Z,6.10
2017-12-21T00:08:39.863Z,6.10
2017-12-21T00:11:08.056Z,6.10
2017-12-21T00:13:35.488Z,6.10
2017-12-21T00:16:02.916Z,6.10
2017-12-21T00:18:30.356Z,6.10
2017-12-21T00:20:57.803Z,6.20
2017-12-21T00:23:25.233Z,6.20
2017-12-21T00:25:53.423Z,6.10
2017-12-21T00:28:20.852Z,6.10
2017-12-21T00:30:49.043Z,6.10
2017-12-21T00:33:16.475Z,6.10
2017-12-21T00:35:43.927Z,6.00
2017-12-21T00:38:11.364Z,6.00
2017-12-21T00:40:38.795Z,6.10
2017-12-21T00:43:06.263Z,6.10
2017-12-21T00:45:33.695Z,6.10
2017-12-21T00:48:01.116Z,6.10
2017-12-21T00:50:28.551Z,6.20
2017-12-21T00:52:55.985Z,6.30
2017-12-21T00:55:23.427Z,6.30
2017-12-21T00:57:50.848Z,6.20
2017-12-21T01:00:19.044Z,6.20
2017-12-21T01:02:46.468Z,6.20
2017-12-21T01:05:13.904Z,6.10
2017-12-21T01:07:41.329Z,6.00
2017-12-21T01:10:08.755Z,6.00
2017-12-21T01:12:36.951Z,6.10
2017-12-21T01:15:04.381Z,6.10
2017-12-21T01:17:32.588Z,6.10
2017-12-21T01:20:00.024Z,6.00
2017-12-21T01:22:28.213Z,6.10
2017-12-21T01:24:55.640Z,6.10
2017-12-21T01:27:23.070Z,6.10
2017-12-21T01:29:50.499Z,6.20
2017-12-21T01:32:17.925Z,6.20
2017-12-21T01:34:46.165Z,6.20
2017-12-21T01:37:13.598Z,6.10
2017-12-21T01:39:41.024Z,6.10
2017-12-21T01:42:08.456Z,6.20
2017-12-21T01:44:36.652Z,6.20
2017-12-21T01:47:05.665Z,6.20
2017-12-21T01:49:33.096Z,6.20
2017-12-21T01:52:01.295Z,6.20
2017-12-21T01:54:28.720Z,6.20
2017-12-21T01:56:56.916Z,6.30
2017-12-21T01:59:24.344Z,6.30
2017-12-21T02:01:52.544Z,6.40
2017-12-21T02:04:19.971Z,6.40
2017-12-21T02:06:47.408Z,6.40
2017-12-21T02:09:14.840Z,6.40
2017-12-21T02:11:42.271Z,6.50
2017-12-21T02:14:09.697Z,6.50
2017-12-21T02:16:38.071Z,6.50
2017-12-21T02:19:05.508Z,6.50
2017-12-21T02:21:32.937Z,6.50
2017-12-21T02:24:00.364Z,6.50
2017-12-21T02:26:27.799Z,6.40
2017-12-21T02:28:55.218Z,6.50
2017-12-21T02:31:22.663Z,6.50
2017-12-21T02:33:50.086Z,6.40
2017-12-21T02:36:18.276Z,6.40
2017-12-21T02:38:45.707Z,6.40
2017-12-21T02:41:13.900Z,6.40
2017-12-21T02:43:42.099Z,6.40
2017-12-21T02:46:09.524Z,6.40
2017-12-21T02:48:37.732Z,6.40
2017-12-21T02:51:05.151Z,6.30
2017-12-21T02:53:33.363Z,6.30
2017-12-21T02:56:00.787Z,6.30
2017-12-21T02:58:28.993Z,6.40
2017-12-21T03:00:56.414Z,6.40
2017-12-21T03:03:24.710Z,6.40
2017-12-21T03:05:52.143Z,6.40
2017-12-21T03:08:20.336Z,6.40
2017-12-21T03:10:47.767Z,6.40
2017-12-21T03:13:15.187Z,6.40
2017-12-21T03:15:42.631Z,6.30
2017-12-21T03:18:10.049Z,6.30
2017-12-21T03:20:38.251Z,6.30
2017-12-21T03:23:05.669Z,6.30
2017-12-21T03:25:33.124Z,6.30
2017-12-21T03:28:00.547Z,6.30
2017-12-21T03:30:27.977Z,6.30
2017-12-21T03:32:55.403Z,6.40
2017-12-21T03:35:23.614Z,6.40
2017-12-21T03:37:51.032Z,6.30
2017-12-21T03:40:19.228Z,6.30
2017-12-21T03:42:46.651Z,6.30
2017-12-21T03:45:14.099Z,6.30
2017-12-21T03:47:41.523Z,6.30
2017-12-21T03:50:08.952Z,6.30
2017-12-21T03:52:36.384Z,6.30
2017-12-21T03:55:03.820Z,6.30
2017-12-21T03:57:31.252Z,6.30
2017-12-21T03:59:58.683Z,6.30
2017-12-21T04:02:27.130Z,6.20
2017-12-21T04:04:54.556Z,6.20
2017-12-21T04:07:21.985Z,6.20
2017-12-21T04:09:49.415Z,6.20
2017-12-21T04:12:17.613Z,6.30
2017-12-21T04:14:45.032Z,6.30
2017-12-21T04:17:12.467Z,6.30
2017-12-21T04:19:39.896Z,6.30
2017-12-21T04:22:07.339Z,6.30
2017-12-21T04:24:34.764Z,6.40
2017-12-21T04:27:02.205Z,6.30
2017-12-21T04:29:29.627Z,6.40
2017-12-21T04:31:57.052Z,6.30
2017-12-21T04:34:25.263Z,6.40
2017-12-21T04:36:52.679Z,6.40
2017-12-21T04:39:20.880Z,6.40
2017-12-21T04:41:48.296Z,6.40
2017-12-21T04:44:15.815Z,6.40
2017-12-21T04:46:43.223Z,6.50
2017-12-21T04:49:11.543Z,6.50
2017-12-21T04:51:39.684Z,6.40
2017-12-21T04:54:07.113Z,6.40
2017-12-21T04:56:34.535Z,6.40
2017-12-21T04:59:01.978Z,6.50
2017-12-21T05:01:29.410Z,6.50
2017-12-21T05:03:56.843Z,6.60
2017-12-21T05:06:24.263Z,6.50
2017-12-21T05:08:51.697Z,6.50
2017-12-21T05:11:19.120Z,6.60
2017-12-21T05:13:47.316Z,6.50
2017-12-21T05:16:14.760Z,6.50
2017-12-21T05:18:42.949Z,6.50
2017-12-21T05:21:10.384Z,6.50
2017-12-21T05:23:38.586Z,6.40
2017-12-21T05:26:06.024Z,6.40
2017-12-21T05:28:34.220Z,6.50
2017-12-21T05:31:01.657Z,6.50
2017-12-21T05:33:29.851Z,6.50
2017-12-21T05:35:57.284Z,6.40
2017-12-21T05:38:25.469Z,6.40
2017-12-21T05:40:52.905Z,6.40
2017-12-21T05:43:21.108Z,6.50
2017-12-21T05:45:48.536Z,6.50
2017-12-21T05:48:16.731Z,6.60
2017-12-21T05:50:44.167Z,6.60
2017-12-21T05:53:12.365Z,6.50
2017-12-21T05:55:39.800Z,6.50
2017-12-21T05:58:07.992Z,6.60
2017-12-21T06:00:35.470Z,6.50
2017-12-21T06:03:02.875Z,6.60
2017-12-21T06:05:30.303Z,6.50
2017-12-21T06:07:57.740Z,6.60
2017-12-21T06:10:25.159Z,6.50
2017-12-21T06:12:53.357Z,6.60
2017-12-21T06:15:20.791Z,6.50
2017-12-21T06:17:48.992Z,6.60
2017-12-21T06:20:16.430Z,6.50
2017-12-21T06:22:44.622Z,6.50
2017-12-21T06:25:12.111Z,6.50
2017-12-21T06:27:39.501Z,6.50
2017-12-21T06:30:06.957Z,6.60
2017-12-21T06:32:34.392Z,6.50
2017-12-21T06:35:01.836Z,6.40
2017-12-21T06:37:29.255Z,6.40
2017-12-21T06:39:56.687Z,6.40
2017-12-21T06:42:24.119Z,6.30
2017-12-21T06:44:51.552Z,6.30
2017-12-21T06:47:18.983Z,6.30
2017-12-21T06:49:46.409Z,6.30
2017-12-21T06:52:13.849Z,6.30
2017-12-21T06:54:41.287Z,6.30
2017-12-21T06:57:08.707Z,6.30
2017-12-21T06:59:36.148Z,6.30
2017-12-21T07:02:04.339Z,6.30
2017-12-21T07:04:32.848Z,6.30
2017-12-21T07:07:00.272Z,6.30
2017-12-21T07:09:28.477Z,6.30
2017-12-21T07:11:55.904Z,6.30
2017-12-21T07:14:24.109Z,6.40
2017-12-21T07:16:51.534Z,6.30
2017-12-21T07:19:19.754Z,6.30
2017-12-21T07:21:47.179Z,6.30
2017-12-21T07:24:14.608Z,6.30
2017-12-21T07:26:42.048Z,6.30
2017-12-21T07:29:09.480Z,6.30
2017-12-21T07:31:36.907Z,6.30
2017-12-21T07:34:04.339Z,6.30
2017-12-21T07:36:32.530Z,6.30
2017-12-21T07:39:00.017Z,6.30
2017-12-21T07:41:27.440Z,6.40
2017-12-21T07:43:55.632Z,6.40
2017-12-21T07:46:23.055Z,6.40
2017-12-21T07:48:50.475Z,6.40
2017-12-21T07:51:17.910Z,6.40
2017-12-21T07:53:45.350Z,6.50
2017-12-21T07:56:13.548Z,6.50
2017-12-21T07:58:40.984Z,6.50
2017-12-21T08:01:08.416Z,6.60
2017-12-21T08:03:36.612Z,6.50
2017-12-21T08:06:04.038Z,6.50
2017-12-21T08:08:31.472Z,6.60
2017-12-21T08:10:58.912Z,6.60
2017-12-21T08:13:26.340Z,6.70
2017-12-21T08:15:53.800Z,6.60
2017-12-21T08:18:21.223Z,6.60
2017-12-21T08:20:48.647Z,6.60
2017-12-21T08:23:16.076Z,6.60
2017-12-21T08:25:43.547Z,6.70
2017-12-21T08:28:10.983Z,6.70
2017-12-21T08:30:38.403Z,6.70
2017-12-21T08:33:05.844Z,6.70
2017-12-21T08:35:33.274Z,6.70
2017-12-21T08:38:00.703Z,6.80
2017-12-21T08:40:28.900Z,6.70
2017-12-21T08:42:56.339Z,6.70
2017-12-21T08:45:23.776Z,6.70
2017-12-21T08:47:51.972Z,6.70
2017-12-21T08:50:19.403Z,6.70
2017-12-21T08:52:47.600Z,6.70
2017-12-21T08:55:15.033Z,6.70
2017-12-21T08:57:42.463Z,6.70
2017-12-21T09:00:09.883Z,6.70
2017-12-21T09:02:37.315Z,6.70
2017-12-21T09:05:05.509Z,6.70
2017-12-21T09:07:32.939Z,6.70
2017-12-21T09:10:01.122Z,6.70
2017-12-21T09:12:29.331Z,6.70
2017-12-21T09:14:56.764Z,6.70
2017-12-21T09:17:24.236Z,6.70
2017-12-21T09:19:51.658Z,6.70
2017-12-21T09:22:19.843Z,6.70
2017-12-21T09:24:48.053Z,6.70
2017-12-21T09:27:15.471Z,6.70
2017-12-21T09:29:43.677Z,6.80
2017-12-21T09:32:11.100Z,6.80
2017-12-21T09:34:39.301Z,6.80
2017-12-21T09:37:06.724Z,6.80
2017-12-21T09:39:34.151Z,6.90
2017-12-21T09:42:01.583Z,6.90
2017-12-21T09:44:29.017Z,6.90
2017-12-21T09:46:56.461Z,7.00
2017-12-21T09:49:23.888Z,7.10
2017-12-21T09:51:51.315Z,7.10
2017-12-21T09:54:20.767Z,7.10
2017-12-21T09:56:48.191Z,7.20
2017-12-21T09:59:15.664Z,7.20
2017-12-21T10:01:43.095Z,7.20
2017-12-21T10:04:10.523Z,7.20
2017-12-21T10:06:37.951Z,7.20
2017-12-21T10:09:06.146Z,7.30
2017-12-21T10:11:34.336Z,7.30
2017-12-21T10:14:01.763Z,7.30
2017-12-21T10:16:29.967Z,7.30
2017-12-21T10:18:57.384Z,7.30
2017-12-21T10:21:24.822Z,7.30
2017-12-21T10:23:52.250Z,7.30
2017-12-21T10:26:19.685Z,7.30
2017-12-21T10:28:47.107Z,7.30
2017-12-21T10:31:14.543Z,7.30
2017-12-21T10:33:41.970Z,7.30
2017-12-21T10:36:09.467Z,7.30
2017-12-21T10:38:36.898Z,7.30
2017-12-21T10:41:04.342Z,7.20
2017-12-21T10:43:31.755Z,7.30
2017-12-21T10:46:01.928Z,7.40
2017-12-21T10:48:29.353Z,7.40
2017-12-21T10:50:56.775Z,7.40
2017-12-21T10:53:24.213Z,7.40
2017-12-21T10:55:51.642Z,7.50
2017-12-21T10:58:19.096Z,7.50
2017-12-21T11:00:47.259Z,7.60
2017-12-21T11:03:14.695Z,7.60
2017-12-21T11:05:42.896Z,7.50
2017-12-21T11:08:10.328Z,7.50
2017-12-21T11:10:38.523Z,7.60
2017-12-21T11:13:05.960Z,7.60
2017-12-21T11:15:34.148Z,7.60
2017-12-21T11:18:01.574Z,7.60
2017-12-21T11:20:29.013Z,7.60
2017-12-21T11:22:56.446Z,7.60
2017-12-21T11:25:23.880Z,7.70
2017-12-21T11:27:51.312Z,7.80
2017-12-21T11:30:18.740Z,7.70
2017-12-21T11:32:46.159Z,7.70
2017-12-21T11:35:13.594Z,7.80
2017-12-21T11:37:41.809Z,7.90
2017-12-21T11:40:09.240Z,7.90
2017-12-21T11:42:36.664Z,8.00
2017-12-21T11:45:04.096Z,8.00
2017-12-21T11:47:31.532Z,8.00
2017-12-21T11:49:58.946Z,8.00
2017-12-21T11:52:27.207Z,8.00
2017-12-21T11:54:54.654Z,7.90
2017-12-21T11:57:22.712Z,7.90
2017-12-21T11:59:50.148Z,7.90
2017-12-21T12:02:17.654Z,7.90
2017-12-21T12:04:45.067Z,8.00
2017-12-21T12:07:12.572Z,7.90
2017-12-21T12:09:40.046Z,8.00
2017-12-21T12:12:08.235Z,8.10
2017-12-21T12:14:35.657Z,8.10
2017-12-21T12:17:03.084Z,8.20
2017-12-21T12:19:31.382Z,8.20
2017-12-21T12:21:58.795Z,8.30
2017-12-21T12:24:26.243Z,8.30
2017-12-21T12:26:54.425Z,8.40
2017-12-21T12:29:21.843Z,8.30
2017-12-21T12:31:50.043Z,8.30
2017-12-21T12:34:17.472Z,8.30
2017-12-21T12:36:45.670Z,8.40
2017-12-21T12:39:13.216Z,8.30
2017-12-21T12:41:41.407Z,8.30
2017-12-21T12:44:08.833Z,8.30
2017-12-21T12:46:36.279Z,8.40
2017-12-21T12:49:03.707Z,8.50
2017-12-21T12:51:31.140Z,8.50
2017-12-21T12:53:58.580Z,8.50
2017-12-21T12:56:26.768Z,8.60
2017-12-21T12:58:54.199Z,8.50
2017-12-21T13:01:22.387Z,8.50
2017-12-21T13:03:50.592Z,8.50
2017-12-21T13:06:18.011Z,8.50
2017-12-21T13:08:46.344Z,8.50
2017-12-21T13:11:13.747Z,8.50
2017-12-21T13:13:41.951Z,8.40
2017-12-21T13:16:09.382Z,8.40
2017-12-21T13:18:37.615Z,8.50
2017-12-21T13:21:05.107Z,8.50
2017-12-21T13:23:33.309Z,8.60
2017-12-21T13:26:00.738Z,8.60
2017-12-21T13:28:28.968Z,8.60
2017-12-21T13:30:56.404Z,8.60
2017-12-21T13:33:23.863Z,8.60
2017-12-21T13:35:52.029Z,8.50
2017-12-21T13:38:19.447Z,8.50
2017-12-21T13:40:46.912Z,8.40
2017-12-21T13:43:15.117Z,8.40
2017-12-21T13:45:42.552Z,8.40
2017-12-21T13:48:10.756Z,8.40
2017-12-21T13:50:38.188Z,8.40
2017-12-21T13:53:06.386Z,8.30
2017-12-21T13:55:33.811Z,8.30
2017-12-21T13:58:02.004Z,8.20
2017-12-21T14:00:29.435Z,8.10
2017-12-21T14:02:57.626Z,8.20
2017-12-21T14:05:26.035Z,8.20
2017-12-21T14:07:53.541Z,8.20
2017-12-21T14:10:20.969Z,8.20
2017-12-21T14:12:48.407Z,8.20
2017-12-21T14:15:15.822Z,8.30
2017-12-21T14:17:44.033Z,8.40
2017-12-21T14:20:11.447Z,8.40
2017-12-21T14:22:39.647Z,8.30
2017-12-21T14:25:07.079Z,8.30
2017-12-21T14:27:34.524Z,8.30
2017-12-21T14:30:01.949Z,8.30
2017-12-21T14:32:29.376Z,8.30
2017-12-21T14:34:56.804Z,8.30
2017-12-21T14:37:24.277Z,8.30
2017-12-21T14:39:52.484Z,8.20
2017-12-21T14:42:20.648Z,8.20
2017-12-21T14:44:48.078Z,8.10
2017-12-21T14:47:16.273Z,8.30
2017-12-21T14:49:43.702Z,8.30
2017-12-21T14:52:11.177Z,8.20
2017-12-21T14:54:38.797Z,8.20
2017-12-21T14:57:06.247Z,8.20
2017-12-21T14:59:33.741Z,8.30
2017-12-21T15:02:01.933Z,8.30
2017-12-21T15:04:29.373Z,8.30
2017-12-21T15:06:57.564Z,8.40
2017-12-21T15:09:25.007Z,8.40
2017-12-21T15:11:53.200Z,8.30
2017-12-21T15:14:20.627Z,8.30
2017-12-21T15:16:48.832Z,8.30
2017-12-21T15:19:16.292Z,8.30
2017-12-21T15:21:43.719Z,8.30
2017-12-21T15:24:11.921Z,8.30
2017-12-21T15:26:39.352Z,8.30
2017-12-21T15:29:07.549Z,8.30
2017-12-21T15:31:35.028Z,8.20
2017-12-21T15:34:02.453Z,8.20
2017-12-21T15:36:30.649Z,8.10
2017-12-21T15:38:58.101Z,8.10
2017-12-21T15:41:25.527Z,8.10
2017-12-21T15:43:53.725Z,8.10
2017-12-21T15:46:21.283Z,8.10
2017-12-21T15:48:48.732Z,8.10
2017-12-21T15:51:17.160Z,8.10
2017-12-21T15:53:44.642Z,8.20
2017-12-21T15:56:12.077Z,8.20
2017-12-21T15:58:39.528Z,8.20
2017-12-21T16:01:07.001Z,8.20
2017-12-21T16:03:34.508Z,8.20
2017-12-21T16:06:01.933Z,8.20
2017-12-21T16:08:29.363Z,8.20
2017-12-21T16:10:56.785Z,8.10
2017-12-21T16:13:24.211Z,8.10
2017-12-21T16:15:52.412Z,8.20
2017-12-21T16:18:19.935Z,8.20
2017-12-21T16:20:47.452Z,8.10
2017-12-21T16:23:14.906Z,8.10
2017-12-21T16:25:42.367Z,8.00
2017-12-21T16:28:09.800Z,8.00
2017-12-21T16:30:37.218Z,8.00
2017-12-21T16:33:04.788Z,8.00
2017-12-21T16:35:32.235Z,8.00
2017-12-21T16:37:59.656Z,8.10
2017-12-21T16:40:27.095Z,8.10
2017-12-21T16:42:54.526Z,8.00
2017-12-21T16:45:23.008Z,8.00
2017-12-21T16:47:51.206Z,8.00
2017-12-21T16:50:18.634Z,8.00
2017-12-21T16:52:46.916Z,8.00
2017-12-21T16:55:15.111Z,8.00
2017-12-21T16:57:42.540Z,7.90
2017-12-21T17:00:10.829Z,8.00
2017-12-21T17:02:40.002Z,8.00
2017-12-21T17:05:07.427Z,8.00
2017-12-21T17:07:34.871Z,8.00
2017-12-21T17:10:02.314Z,8.00
2017-12-21T17:12:29.876Z,8.00
2017-12-21T17:14:57.295Z,8.00
2017-12-21T17:17:25.525Z,7.90
2017-12-21T17:19:52.942Z,7.90
2017-12-21T17:22:21.219Z,7.90
2017-12-21T17:24:49.413Z,7.90
2017-12-21T17:27:16.847Z,7.90
2017-12-21T17:29:45.042Z,7.90
2017-12-21T17:32:12.480Z,7.90
2017-12-21T17:34:40.672Z,8.00
2017-12-21T17:37:08.099Z,8.00
2017-12-21T17:39:36.958Z,8.00
2017-12-21T17:42:04.461Z,8.00
2017-12-21T17:44:32.656Z,7.90
2017-12-21T17:47:00.082Z,7.90
2017-12-21T17:49:27.495Z,7.90
2017-12-21T17:51:54.930Z,7.90
2017-12-21T17:54:22.346Z,7.90
2017-12-21T17:56:50.574Z,7.90
2017-12-21T17:59:17.999Z,7.90
2017-12-21T18:01:45.438Z,7.80
2017-12-21T18:04:12.871Z,7.90
2017-12-21T18:06:40.290Z,7.90
2017-12-21T18:09:07.720Z,7.90
2017-12-21T18:11:35.927Z,7.90
2017-12-21T18:14:03.354Z,7.90
2017-12-21T18:16:32.936Z,7.90
2017-12-21T18:19:00.371Z,7.90
2017-12-21T18:21:27.800Z,8.00
2017-12-21T18:23:55.232Z,8.00
2017-12-21T18:26:22.656Z,8.00
2017-12-21T18:28:50.079Z,7.90
2017-12-21T18:31:17.521Z,7.90
2017-12-21T18:33:44.941Z,7.90
2017-12-21T18:36:13.143Z,7.90
2017-12-21T18:38:40.575Z,7.90
2017-12-21T18:41:08.773Z,7.80
2017-12-21T18:43:36.195Z,7.80
2017-12-21T18:46:03.627Z,7.80
2017-12-21T18:48:31.068Z,7.80
2017-12-21T18:50:58.503Z,7.70
2017-12-21T18:53:25.933Z,7.70
2017-12-21T18:55:53.360Z,7.80
2017-12-21T18:58:20.789Z,7.80
2017-12-21T19:00:48.210Z,7.90
2017-12-21T19:03:16.402Z,7.80
2017-12-21T19:05:43.824Z,7.80
2017-12-21T19:08:11.271Z,7.80
2017-12-21T19:10:38.705Z,7.80
2017-12-21T19:13:06.131Z,7.80
2017-12-21T19:15:33.556Z,7.80
2017-12-21T19:18:00.978Z,7.70
2017-12-21T19:20:28.403Z,7.70
2017-12-21T19:22:55.824Z,7.70
2017-12-21T19:25:23.244Z,7.70
2017-12-21T19:27:50.687Z,7.80
2017-12-21T19:30:18.117Z,7.70
2017-12-21T19:32:46.305Z,7.70
2017-12-21T19:35:13.737Z,7.70
2017-12-21T19:37:41.935Z,7.70
2017-12-21T19:40:09.352Z,7.70
2017-12-21T19:42:36.780Z,7.70
2017-12-21T19:45:04.195Z,7.70
2017-12-21T19:47:31.646Z,7.80
2017-12-21T19:49:59.821Z,7.80
2017-12-21T19:52:28.029Z,7.70
2017-12-21T19:54:55.460Z,7.70
2017-12-21T19:57:22.888Z,7.70
2017-12-21T19:59:50.316Z,7.70
2017-12-21T20:02:17.750Z,7.70
2017-12-21T20:04:45.189Z,7.70
2017-12-21T20:07:12.615Z,7.70
2017-12-21T20:09:40.040Z,7.70
2017-12-21T20:12:07.463Z,7.60
2017-12-21T20:14:34.895Z,7.60
2017-12-21T20:17:03.092Z,7.50
2017-12-21T20:19:30.527Z,7.50
2017-12-21T20:21:58.715Z,7.60
2017-12-21T20:24:26.158Z,7.50
2017-12-21T20:26:54.352Z,7.60
2017-12-21T20:29:21.829Z,7.50
2017-12-21T20:31:49.258Z,7.60
2017-12-21T20:34:17.443Z,7.60
2017-12-21T20:36:44.939Z,7.60
2017-12-21T20:39:12.364Z,7.60
2017-12-21T20:41:39.795Z,7.60
2017-12-21T20:44:08.007Z,7.60
2017-12-21T20:46:35.427Z,7.60
2017-12-21T20:49:03.638Z,7.60
2017-12-21T20:51:31.102Z,7.60
2017-12-21T20:53:59.539Z,7.70
2017-12-21T20:56:27.727Z,7.70
2017-12-21T20:58:55.181Z,7.70
2017-12-21T21:01:23.363Z,7.70
2017-12-21T21:03:51.819Z,7.70
2017-12-21T21:06:20.145Z,7.70
2017-12-21T21:08:48.592Z,7.70
2017-12-21T21:11:16.844Z,7.70
2017-12-21T21:13:44.355Z,7.70
2017-12-21T21:16:11.786Z,7.70
2017-12-21T21:18:39.987Z,7.70
2017-12-21T21:21:07.412Z,7.70
2017-12-21T21:23:35.619Z,7.70
2017-12-21T21:26:03.043Z,7.70
2017-12-21T21:28:31.239Z,7.60
2017-12-21T21:30:58.658Z,7.60
2017-12-21T21:33:26.859Z,7.60
2017-12-21T21:35:54.286Z,7.60
2017-12-21T21:38:21.707Z,7.60
2017-12-21T21:40:49.140Z,7.60
2017-12-21T21:43:16.571Z,7.60
2017-12-21T21:45:44.807Z,7.60
2017-12-21T21:48:12.224Z,7.60
2017-12-21T21:50:39.648Z,7.60
2017-12-21T21:53:07.067Z,7.60
2017-12-21T21:55:34.494Z,7.60
2017-12-21T21:58:01.945Z,7.60
2017-12-21T22:00:29.375Z,7.60
2017-12-21T22:02:56.812Z,7.60
2017-12-21T22:05:24.247Z,7.60
2017-12-21T22:07:51.678Z,7.60
2017-12-21T22:10:19.108Z,7.60
2017-12-21T22:12:47.305Z,7.60
2017-12-21T22:15:14.728Z,7.60
2017-12-21T22:17:42.156Z,7.60
2017-12-21T22:20:09.597Z,7.60
2017-12-21T22:22:37.010Z,7.60
2017-12-21T22:25:05.212Z,7.60
2017-12-21T22:27:32.631Z,7.50
2017-12-21T22:30:00.068Z,7.60
2017-12-21T22:32:27.495Z,7.60
2017-12-21T22:34:54.931Z,7.60
2017-12-21T22:37:22.354Z,7.60
2017-12-21T22:39:49.783Z,7.60
2017-12-21T22:42:17.208Z,7.70
2017-12-21T22:44:44.640Z,7.70
2017-12-21T22:47:12.834Z,7.60
2017-12-21T22:49:40.272Z,7.60
2017-12-21T22:52:08.471Z,7.70
2017-12-21T22:54:35.895Z,7.60
2017-12-21T22:57:03.318Z,7.60
2017-12-21T22:59:30.744Z,7.60
2017-12-21T23:01:58.179Z,7.70
2017-12-21T23:04:26.362Z,7.80
2017-12-21T23:06:53.811Z,7.80
2017-12-21T23:09:22.007Z,7.80
2017-12-21T23:11:49.440Z,7.80
2017-12-21T23:14:17.628Z,7.80
2017-12-21T23:16:45.063Z,7.80
2017-12-21T23:19:13.260Z,7.80
2017-12-21T23:21:40.684Z,7.80
2017-12-21T23:24:08.107Z,7.90
2017-12-21T23:26:35.535Z,7.90
2017-12-21T23:29:02.964Z,8.00
2017-12-21T23:31:31.162Z,8.00
2017-12-21T23:33:58.574Z,8.00
2017-12-21T23:36:26.009Z,8.00
2017-12-21T23:38:53.431Z,8.00
2017-12-21T23:41:20.858Z,8.00
2017-12-21T23:43:48.278Z,8.10
2017-12-21T23:46:15.721Z,8.10
2017-12-21T23:48:43.148Z,8.10
2017-12-21T23:51:11.345Z,8.10
2017-12-21T23:53:38.796Z,8.00
2017-12-21T23:56:06.224Z,8.00
2017-12-21T23:58:34.420Z,8.00
